createdAt,value
2016-04-13T00:00:12.094Z,75.68
2016-04-13T00:01:12.144Z,76.44
2016-04-13T00:02:12.178Z,76.16
2016-04-13T00:03:12.212Z,75.4
2016-04-13T00:04:12.246Z,75.59
2016-04-13T00:05:12.280Z,75.68
2016-04-13T00:06:12.313Z,75.01
2016-04-13T00:07:12.363Z,75.01
2016-04-13T00:08:12.386Z,75.59
2016-04-13T00:09:12.420Z,75.68
2016-04-13T00:10:12.454Z,75.78
2016-04-13T00:11:12.487Z,76.12
2016-04-13T00:12:12.537Z,76.79
2016-04-13T00:13:12.556Z,76.98
2016-04-13T00:14:12.589Z,77.74
2016-04-13T00:15:12.655Z,77.26
2016-04-13T00:16:12.673Z,76.79
2016-04-13T00:17:12.707Z,76.21
2016-04-13T00:18:12.741Z,76.21
2016-04-13T00:19:12.775Z,76.88
2016-04-13T00:20:12.824Z,76.88
2016-04-13T00:21:12.859Z,76.88
2016-04-13T00:22:12.940Z,76.88
2016-04-13T00:23:12.926Z,76.79
2016-04-13T00:24:12.977Z,77.17
2016-04-13T00:25:12.994Z,76.88
2016-04-13T00:26:13.028Z,77.17
2016-04-13T00:27:13.078Z,77.64
2016-04-13T00:28:13.096Z,77.83
2016-04-13T00:29:13.146Z,76.98
2016-04-13T00:30:13.180Z,76.59
2016-04-13T00:31:13.213Z,76.79
2016-04-13T00:32:13.248Z,76.79
2016-04-13T00:33:13.282Z,76.59
2016-04-13T00:34:13.331Z,76.98
2016-04-13T00:35:13.349Z,77.07
2016-04-13T00:36:13.399Z,76.79
2016-04-13T00:37:13.417Z,76.12
2016-04-13T00:38:13.451Z,76.4
2016-04-13T00:39:13.500Z,76.4
2016-04-13T00:40:13.534Z,76.12
2016-04-13T00:41:13.569Z,76.59
2016-04-13T00:42:13.603Z,76.88
2016-04-13T00:43:13.637Z,76.4
2016-04-13T00:44:13.686Z,77.17
2016-04-13T00:45:13.720Z,76.31
2016-04-13T00:46:13.754Z,77.17
2016-04-13T00:47:13.789Z,76.79
2016-04-13T00:48:13.822Z,77.64
2016-04-13T00:49:13.856Z,77.45
2016-04-13T00:50:13.890Z,77.36
2016-04-13T00:51:13.939Z,77.07
2016-04-13T00:52:13.957Z,76.98
2016-04-13T00:53:13.991Z,77.45
2016-04-13T00:54:14.041Z,77.26
2016-04-13T00:55:14.075Z,77.36
2016-04-13T00:56:14.108Z,76.79
2016-04-13T00:57:14.143Z,76.88
2016-04-13T00:58:14.177Z,76.69
2016-04-13T00:59:14.210Z,76.98
2016-04-13T01:00:14.244Z,77.36
2016-04-13T01:01:14.279Z,76.98
2016-04-13T01:02:14.328Z,76.98
2016-04-13T01:03:14.362Z,77.07
2016-04-13T01:04:14.396Z,76.98
2016-04-13T01:05:14.429Z,77.64
2016-04-13T01:06:14.464Z,76.79
2016-04-13T01:07:14.498Z,76.88
2016-04-13T01:08:14.548Z,77.55
2016-04-13T01:09:14.566Z,77.26
2016-04-13T01:10:14.616Z,77.93
2016-04-13T01:11:14.649Z,77.32
2016-04-13T01:12:14.667Z,77.61
2016-04-13T01:13:14.722Z,78.03
2016-04-13T01:14:14.755Z,78.56
2016-04-13T01:15:14.788Z,78.08
2016-04-13T01:16:14.838Z,78.27
2016-04-13T01:17:14.857Z,78.56
2016-04-13T01:18:14.890Z,79.22
2016-04-13T01:19:14.924Z,79.22
2016-04-13T01:20:14.974Z,78.85
2016-04-13T01:21:15.102Z,78.94
2016-04-13T01:22:15.031Z,78.85
2016-04-13T01:23:15.064Z,78.65
2016-04-13T01:24:15.098Z,78.56
2016-04-13T01:25:15.148Z,78.85
2016-04-13T01:26:15.166Z,78.94
2016-04-13T01:27:15.216Z,79.13
2016-04-13T01:28:15.250Z,79.89
2016-04-13T01:29:15.283Z,80.36
2016-04-13T01:30:15.318Z,79.7
2016-04-13T01:31:15.352Z,80.27
2016-04-13T01:32:15.385Z,79.8
2016-04-13T01:33:15.435Z,79.99
2016-04-13T01:34:15.469Z,79.8
2016-04-13T01:35:15.502Z,79.99
2016-04-13T01:36:15.521Z,79.51
2016-04-13T01:37:15.570Z,79.8
2016-04-13T01:38:15.589Z,79.89
2016-04-13T01:39:15.638Z,79.03
2016-04-13T01:40:15.673Z,79.03
2016-04-13T01:41:15.707Z,79.89
2016-04-13T01:42:15.740Z,80.18
2016-04-13T01:43:15.790Z,80.94
2016-04-13T01:44:15.809Z,80.55
2016-04-13T01:45:15.859Z,80.04
2016-04-13T01:46:15.876Z,80.18
2016-04-13T01:47:15.926Z,80.36
2016-04-13T01:48:15.960Z,80.55
2016-04-13T01:49:15.994Z,80.46
2016-04-13T01:50:16.028Z,80.36
2016-04-13T01:51:16.092Z,80.27
2016-04-13T01:52:16.095Z,80.75
2016-04-13T01:53:16.130Z,80.65
2016-04-13T01:54:16.163Z,80.99
2016-04-13T01:55:16.208Z,80.71
2016-04-13T01:56:16.300Z,80.94
2016-04-13T01:57:16.377Z,81.51
2016-04-13T01:58:16.455Z,81.37
2016-04-13T01:59:16.531Z,81.13
2016-04-13T02:00:16.602Z,82.04
2016-04-13T02:01:16.650Z,81.85
2016-04-13T02:02:16.700Z,81.56
2016-04-13T02:03:16.765Z,81.66
2016-04-13T02:04:16.798Z,81.47
2016-04-13T02:05:16.845Z,81.6
2016-04-13T02:06:17.104Z,81.76
2016-04-13T02:07:16.939Z,81.95
2016-04-13T02:08:16.980Z,82.04
2016-04-13T02:09:17.019Z,82.04
2016-04-13T02:10:17.040Z,82.8
2016-04-13T02:11:17.077Z,82.99
2016-04-13T02:12:17.113Z,83.09
2016-04-13T02:13:17.164Z,82.9
2016-04-13T02:14:17.201Z,82.9
2016-04-13T02:15:17.235Z,82.9
2016-04-13T02:16:17.271Z,82.8
2016-04-13T02:17:17.321Z,82.99
2016-04-13T02:18:17.356Z,83.65
2016-04-13T02:19:17.374Z,83.37
2016-04-13T02:20:17.409Z,83.47
2016-04-13T02:21:17.475Z,83.65
2016-04-13T02:22:17.478Z,83.37
2016-04-13T02:23:17.528Z,83.65
2016-04-13T02:24:17.547Z,83.37
2016-04-13T02:25:17.581Z,83.28
2016-04-13T02:26:17.615Z,83.56
2016-04-13T02:27:17.680Z,83.56
2016-04-13T02:28:17.698Z,84.13
2016-04-13T02:29:17.732Z,84.42
2016-04-13T02:30:31.942Z,83.85
2016-04-13T02:31:17.801Z,84.04
2016-04-13T02:32:17.850Z,84.61
2016-04-13T02:33:17.868Z,84.42
2016-04-13T02:34:17.903Z,84.61
2016-04-13T02:35:17.936Z,84.61
2016-04-13T02:36:18.142Z,84.42
2016-04-13T02:37:18.004Z,84.89
2016-04-13T02:38:18.038Z,84.23
2016-04-13T02:39:18.072Z,84.33
2016-04-13T02:40:18.106Z,84.8
2016-04-13T02:41:18.155Z,84.89
2016-04-13T02:42:18.189Z,84.61
2016-04-13T02:43:18.224Z,83.75
2016-04-13T02:44:18.241Z,84.13
2016-04-13T02:45:18.274Z,84.33
2016-04-13T02:46:18.324Z,85.08
2016-04-13T02:47:18.375Z,84.33
2016-04-13T02:48:18.393Z,84.04
2016-04-13T02:49:18.427Z,84.42
2016-04-13T02:50:18.460Z,83.56
2016-04-13T02:51:18.557Z,83.65
2016-04-13T02:52:18.529Z,82.99
2016-04-13T02:53:18.562Z,83.37
2016-04-13T02:54:18.596Z,82.8
2016-04-13T02:55:18.630Z,82.8
2016-04-13T02:56:18.679Z,82.51
2016-04-13T02:57:18.714Z,82.14
2016-04-13T02:58:18.731Z,82.23
2016-04-13T02:59:18.781Z,82.08
2016-04-13T03:00:18.800Z,82.27
2016-04-13T03:01:18.850Z,81.95
2016-04-13T03:02:18.884Z,81.79
2016-04-13T03:03:18.917Z,81.6
2016-04-13T03:04:18.936Z,81.7
2016-04-13T03:05:18.986Z,81.79
2016-04-13T03:06:19.036Z,81.79
2016-04-13T03:07:19.069Z,81.41
2016-04-13T03:08:19.087Z,81.41
2016-04-13T03:09:19.121Z,80.65
2016-04-13T03:10:19.155Z,80.27
2016-04-13T03:11:19.189Z,80.55
2016-04-13T03:12:19.222Z,80.36
2016-04-13T03:13:19.257Z,80.75
2016-04-13T03:14:19.306Z,79.99
2016-04-13T03:15:19.325Z,79.99
2016-04-13T03:16:19.359Z,79.7
2016-04-13T03:17:19.393Z,79.8
2016-04-13T03:18:19.427Z,79.32
2016-04-13T03:19:19.476Z,79.03
2016-04-13T03:20:19.494Z,78.94
2016-04-13T03:21:19.560Z,78.94
2016-04-13T03:22:19.563Z,78.94
2016-04-13T03:23:19.612Z,79.03
2016-04-13T03:24:19.661Z,79.03
2016-04-13T03:25:19.679Z,78.37
2016-04-13T03:26:19.714Z,78.17
2016-04-13T03:27:19.747Z,77.89
2016-04-13T03:28:19.781Z,78.46
2016-04-13T03:29:19.815Z,78.75
2016-04-13T03:30:19.850Z,78.37
2016-04-13T03:31:19.899Z,78.85
2016-04-13T03:32:19.933Z,78.56
2016-04-13T03:33:19.967Z,78.75
2016-04-13T03:34:20.001Z,78.75
2016-04-13T03:35:20.034Z,78.75
2016-04-13T03:36:20.116Z,78.17
2016-04-13T03:37:20.103Z,78.56
2016-04-13T03:38:20.136Z,78.56
2016-04-13T03:39:20.155Z,78.37
2016-04-13T03:40:20.194Z,78.65
2016-04-13T03:41:20.227Z,78.56
2016-04-13T03:42:20.277Z,78.94
2016-04-13T03:43:20.295Z,78.17
2016-04-13T03:44:20.346Z,77.98
2016-04-13T03:45:20.379Z,77.89
2016-04-13T03:46:20.413Z,77.22
2016-04-13T03:47:20.462Z,76.94
2016-04-13T03:48:20.481Z,76.94
2016-04-13T03:49:20.515Z,76.65
2016-04-13T03:50:20.548Z,76.84
2016-04-13T03:51:20.582Z,76.84
2016-04-13T03:52:20.617Z,77.42
2016-04-13T03:53:20.665Z,76.84
2016-04-13T03:54:20.700Z,76.94
2016-04-13T03:55:20.734Z,76.94
2016-04-13T03:56:20.768Z,76.27
2016-04-13T03:57:20.801Z,75.99
2016-04-13T03:58:20.820Z,75.99
2016-04-13T03:59:20.870Z,76.37
2016-04-13T04:00:20.904Z,76.56
2016-04-13T04:01:20.937Z,76.84
2016-04-13T04:02:20.972Z,77.09
2016-04-13T04:03:21.005Z,76.9
2016-04-13T04:04:21.039Z,76.52
2016-04-13T04:05:21.089Z,76.61
2016-04-13T04:06:21.107Z,76.42
2016-04-13T04:07:21.141Z,76.94
2016-04-13T04:08:21.175Z,76.84
2016-04-13T04:09:21.209Z,77.09
2016-04-13T04:10:21.243Z,76.75
2016-04-13T04:11:21.277Z,76.56
2016-04-13T04:12:21.311Z,76.37
2016-04-13T04:13:21.361Z,76.27
2016-04-13T04:14:21.395Z,77.13
2016-04-13T04:15:21.429Z,76.52
2016-04-13T04:16:21.463Z,76.81
2016-04-13T04:17:21.480Z,77
2016-04-13T04:18:21.530Z,77.09
2016-04-13T04:19:21.565Z,76.52
2016-04-13T04:20:21.629Z,76.46
2016-04-13T04:21:21.632Z,76.71
2016-04-13T04:22:21.665Z,76.52
2016-04-13T04:23:21.700Z,76.42
2016-04-13T04:24:21.734Z,77.09
2016-04-13T04:25:21.768Z,76.33
2016-04-13T04:26:21.801Z,76.71
2016-04-13T04:27:21.836Z,76.9
2016-04-13T04:28:21.870Z,77.09
2016-04-13T04:29:21.904Z,76.9
2016-04-13T04:30:21.937Z,76.61
2016-04-13T04:31:21.972Z,77
2016-04-13T04:32:22.006Z,76.9
2016-04-13T04:33:22.040Z,76.52
2016-04-13T04:34:22.089Z,76.52
2016-04-13T04:35:22.123Z,76.9
2016-04-13T04:36:22.156Z,77.09
2016-04-13T04:37:22.191Z,76.9
2016-04-13T04:38:22.241Z,77.09
2016-04-13T04:39:22.258Z,77.56
2016-04-13T04:40:22.292Z,77.56
2016-04-13T04:41:22.327Z,77.37
2016-04-13T04:42:22.361Z,77.85
2016-04-13T04:43:22.395Z,77.76
2016-04-13T04:44:22.428Z,77.56
2016-04-13T04:45:22.463Z,78.04
2016-04-13T04:46:22.496Z,77.95
2016-04-13T04:47:22.530Z,78.52
2016-04-13T04:48:22.579Z,77.95
2016-04-13T04:49:22.598Z,78.8
2016-04-13T04:50:22.648Z,78.61
2016-04-13T04:51:22.666Z,78.14
2016-04-13T04:52:22.715Z,78.52
2016-04-13T04:53:22.749Z,78.52
2016-04-13T04:54:22.798Z,78.14
2016-04-13T04:55:22.801Z,78.04
2016-04-13T04:56:22.851Z,77.95
2016-04-13T04:57:22.885Z,77.95
2016-04-13T04:58:22.904Z,78.33
2016-04-13T04:59:22.938Z,77.95
2016-04-13T05:00:22.987Z,78.04
2016-04-13T05:01:23.021Z,78.42
2016-04-13T05:02:23.039Z,78
2016-04-13T05:03:23.073Z,78.23
2016-04-13T05:04:23.123Z,78.14
2016-04-13T05:05:23.141Z,78.33
2016-04-13T05:06:23.191Z,78.23
2016-04-13T05:07:23.225Z,78.42
2016-04-13T05:08:23.258Z,77.85
2016-04-13T05:09:23.292Z,78.04
2016-04-13T05:10:23.327Z,77.76
2016-04-13T05:11:23.361Z,77.37
2016-04-13T05:12:23.394Z,77.85
2016-04-13T05:13:23.428Z,77.28
2016-04-13T05:14:23.462Z,76.9
2016-04-13T05:15:23.496Z,76.9
2016-04-13T05:16:23.529Z,77.47
2016-04-13T05:17:23.563Z,76.71
2016-04-13T05:18:23.613Z,76.42
2016-04-13T05:19:23.632Z,77.09
2016-04-13T05:20:23.666Z,76.61
2016-04-13T05:21:23.715Z,76.52
2016-04-13T05:22:23.750Z,76.14
2016-04-13T05:23:23.782Z,75.32
2016-04-13T05:24:23.817Z,74.27
2016-04-13T05:25:23.835Z,73.65
2016-04-13T05:26:23.885Z,72.41
2016-04-13T05:27:23.904Z,72.31
2016-04-13T05:28:23.953Z,72.31
2016-04-13T05:29:23.987Z,72.41
2016-04-13T05:30:24.006Z,73.07
2016-04-13T05:31:24.054Z,72.88
2016-04-13T05:32:24.089Z,72.5
2016-04-13T05:33:24.122Z,72.31
2016-04-13T05:34:24.173Z,73.07
2016-04-13T05:35:24.190Z,73.45
2016-04-13T05:36:24.256Z,73.61
2016-04-13T05:37:24.258Z,73.8
2016-04-13T05:38:24.292Z,73.41
2016-04-13T05:39:24.325Z,73.61
2016-04-13T05:40:24.361Z,73.61
2016-04-13T05:41:24.410Z,72.97
2016-04-13T05:42:24.444Z,71.83
2016-04-13T05:43:24.477Z,70.88
2016-04-13T05:44:24.511Z,71.11
2016-04-13T05:45:24.546Z,70.63
2016-04-13T05:46:24.579Z,70.15
2016-04-13T05:47:24.629Z,69.68
2016-04-13T05:48:24.647Z,69.29
2016-04-13T05:49:24.681Z,70.34
2016-04-13T05:50:24.715Z,70.25
2016-04-13T05:51:24.765Z,71.01
2016-04-13T05:52:24.798Z,71.73
2016-04-13T05:53:24.832Z,71.83
2016-04-13T05:54:24.867Z,72.21
2016-04-13T05:55:24.901Z,72.41
2016-04-13T05:56:24.934Z,72.31
2016-04-13T05:57:24.968Z,72.5
2016-04-13T05:58:25.002Z,72.21
2016-04-13T05:59:25.052Z,71.93
2016-04-13T06:00:25.086Z,71.83
2016-04-13T06:01:25.120Z,71.64
2016-04-13T06:02:25.138Z,72.02
2016-04-13T06:03:25.187Z,72.12
2016-04-13T06:04:25.222Z,72.02
2016-04-13T06:05:25.255Z,71.93
2016-04-13T06:06:25.306Z,71.83
2016-04-13T06:07:25.323Z,71.73
2016-04-13T06:08:25.358Z,71.73
2016-04-13T06:09:25.407Z,71.45
2016-04-13T06:10:25.441Z,71.17
2016-04-13T06:11:25.459Z,71.07
2016-04-13T06:12:25.509Z,71.2
2016-04-13T06:13:25.543Z,71.17
2016-04-13T06:14:25.639Z,70.63
2016-04-13T06:15:25.610Z,70.34
2016-04-13T06:16:25.644Z,69.58
2016-04-13T06:17:25.694Z,68.82
2016-04-13T06:18:25.712Z,67.96
2016-04-13T06:19:25.746Z,68.28
2016-04-13T06:20:25.796Z,67.71
2016-04-13T06:21:25.830Z,68.09
2016-04-13T06:22:25.863Z,67.33
2016-04-13T06:23:25.899Z,67.23
2016-04-13T06:24:25.932Z,67.23
2016-04-13T06:25:25.981Z,66.47
2016-04-13T06:26:26.015Z,66.18
2016-04-13T06:27:26.049Z,64.69
2016-04-13T06:28:26.083Z,62.52
2016-04-13T06:29:26.117Z,60.64
2016-04-13T06:30:26.151Z,60.36
2016-04-13T06:31:26.185Z,59.12
2016-04-13T06:32:26.234Z,57.24
2016-04-13T06:33:26.268Z,54.11
2016-04-13T06:34:26.302Z,52.44
2016-04-13T06:35:26.336Z,51.99
2016-04-13T06:36:26.370Z,52.75
2016-04-13T06:37:26.419Z,52.15
2016-04-13T06:38:26.439Z,53.69
2016-04-13T06:39:26.487Z,54.21
2016-04-13T06:40:26.521Z,53.47
2016-04-13T06:41:26.572Z,52.51
2016-04-13T06:42:26.589Z,52.25
2016-04-13T06:43:26.623Z,52.54
2016-04-13T06:44:26.672Z,54.83
2016-04-13T06:45:26.707Z,55.26
2016-04-13T06:46:26.741Z,56.02
2016-04-13T06:47:26.791Z,56.6
2016-04-13T06:48:26.824Z,56.67
2016-04-13T06:49:26.843Z,57.24
2016-04-13T06:50:26.907Z,57.81
2016-04-13T06:51:26.927Z,59.12
2016-04-13T06:52:26.976Z,58.36
2016-04-13T06:53:27.025Z,58.48
2016-04-13T06:54:27.043Z,59.41
2016-04-13T06:55:27.077Z,59.69
2016-04-13T06:56:27.127Z,59.98
2016-04-13T06:57:27.161Z,60.04
2016-04-13T06:58:27.195Z,59.5
2016-04-13T06:59:27.229Z,59.5
2016-04-13T07:00:27.263Z,60.52
2016-04-13T07:01:27.312Z,60.52
2016-04-13T07:02:27.346Z,60.9
2016-04-13T07:03:27.381Z,61.86
2016-04-13T07:04:27.429Z,62.05
2016-04-13T07:05:27.464Z,61.66
2016-04-13T07:06:27.498Z,62.4
2016-04-13T07:07:27.531Z,63.45
2016-04-13T07:08:27.581Z,63.64
2016-04-13T07:09:27.630Z,64.4
2016-04-13T07:10:27.649Z,63.64
2016-04-13T07:11:27.683Z,63.64
2016-04-13T07:12:27.732Z,63.64
2016-04-13T07:13:27.782Z,63.16
2016-04-13T07:14:27.800Z,64.31
2016-04-13T07:15:27.834Z,64.56
2016-04-13T07:16:27.884Z,64.47
2016-04-13T07:17:27.918Z,65.13
2016-04-13T07:18:27.952Z,65.04
2016-04-13T07:19:27.986Z,64.65
2016-04-13T07:20:28.019Z,65.13
2016-04-13T07:21:28.055Z,64.75
2016-04-13T07:22:28.103Z,63.45
2016-04-13T07:23:28.138Z,63.64
2016-04-13T07:24:28.172Z,63.26
2016-04-13T07:25:28.205Z,63.54
2016-04-13T07:26:28.239Z,63.45
2016-04-13T07:27:28.288Z,62.11
2016-04-13T07:28:28.323Z,61.95
2016-04-13T07:29:28.357Z,63.45
2016-04-13T07:30:28.406Z,63.26
2016-04-13T07:31:28.440Z,63.07
2016-04-13T07:32:28.473Z,61.92
2016-04-13T07:33:28.507Z,61.92
2016-04-13T07:34:28.542Z,61.92
2016-04-13T07:35:28.575Z,61.92
2016-04-13T07:36:28.626Z,60.97
2016-04-13T07:37:28.659Z,61.83
2016-04-13T07:38:28.693Z,61.63
2016-04-13T07:39:28.728Z,61.54
2016-04-13T07:40:28.776Z,60.97
2016-04-13T07:41:28.811Z,59.92
2016-04-13T07:42:28.845Z,58.8
2016-04-13T07:43:28.878Z,59.47
2016-04-13T07:44:28.928Z,60.24
2016-04-13T07:45:28.961Z,60.04
2016-04-13T07:46:28.996Z,60.17
2016-04-13T07:47:29.030Z,60.36
2016-04-13T07:48:29.063Z,60.9
2016-04-13T07:49:29.113Z,61
2016-04-13T07:50:29.147Z,61.29
2016-04-13T07:51:29.181Z,61.19
2016-04-13T07:52:29.231Z,60.61
2016-04-13T07:53:29.249Z,60.71
2016-04-13T07:54:29.299Z,60.17
2016-04-13T07:55:29.332Z,58.93
2016-04-13T07:56:29.366Z,58.38
2016-04-13T07:57:29.416Z,58.29
2016-04-13T07:58:29.449Z,57.9
2016-04-13T07:59:29.485Z,57.71
2016-04-13T08:00:29.518Z,57.26
2016-04-13T08:01:29.568Z,58.48
2016-04-13T08:02:29.618Z,58.48
2016-04-13T08:03:29.635Z,58.29
2016-04-13T08:04:29.670Z,57.43
2016-04-13T08:05:29.703Z,57.33
2016-04-13T08:06:29.753Z,58.19
2016-04-13T08:07:29.787Z,58.58
2016-04-13T08:08:29.669Z,59.34
2016-04-13T08:09:29.859Z,60.07
2016-04-13T08:10:29.908Z,59.41
2016-04-13T08:11:29.942Z,60.36
2016-04-13T08:12:29.977Z,60.93
2016-04-13T08:13:30.026Z,59.98
2016-04-13T08:14:30.061Z,60.3
2016-04-13T08:15:30.094Z,59.91
2016-04-13T08:16:30.128Z,59.41
2016-04-13T08:17:30.163Z,60.46
2016-04-13T08:18:30.211Z,61.86
2016-04-13T08:19:30.246Z,62.15
2016-04-13T08:20:30.296Z,62.52
2016-04-13T08:21:30.329Z,61.86
2016-04-13T08:22:30.379Z,62.15
2016-04-13T08:23:30.413Z,60.93
2016-04-13T08:24:30.432Z,59.98
2016-04-13T08:25:30.481Z,60.46
2016-04-13T08:26:30.515Z,60.27
2016-04-13T08:27:30.565Z,59.98
2016-04-13T08:28:30.598Z,60.07
2016-04-13T08:29:30.632Z,59.31
2016-04-13T08:30:30.682Z,58.73
2016-04-13T08:31:30.715Z,59.15
2016-04-13T08:32:30.749Z,58.76
2016-04-13T08:33:30.783Z,58.29
2016-04-13T08:34:30.833Z,57.71
2016-04-13T08:35:30.882Z,57.75
2016-04-13T08:36:30.900Z,55.64
2016-04-13T08:37:30.935Z,55.38
2016-04-13T08:38:31.078Z,55.83
2016-04-13T08:39:31.034Z,55.93
2016-04-13T08:40:31.052Z,56.5
2016-04-13T08:41:31.102Z,55.83
2016-04-13T08:42:31.136Z,55.64
2016-04-13T08:43:31.185Z,55.64
2016-04-13T08:44:31.235Z,54.14
2016-04-13T08:45:31.268Z,53.85
2016-04-13T08:46:31.302Z,54.71
2016-04-13T08:47:31.336Z,54.52
2016-04-13T08:48:31.386Z,54.23
2016-04-13T08:49:31.420Z,54.23
2016-04-13T08:50:31.439Z,54.52
2016-04-13T08:51:31.488Z,54.52
2016-04-13T08:52:31.538Z,55.16
2016-04-13T08:53:31.571Z,55.07
2016-04-13T08:54:31.621Z,55.16
2016-04-13T08:55:31.640Z,54.21
2016-04-13T08:56:31.736Z,54.39
2016-04-13T08:57:31.724Z,54.9
2016-04-13T08:58:31.773Z,56.4
2016-04-13T08:59:31.807Z,57.71
2016-04-13T09:00:31.840Z,58.19
2016-04-13T09:01:31.890Z,59.22
2016-04-13T09:02:31.924Z,59.47
2016-04-13T09:03:31.973Z,58.93
2016-04-13T09:04:32.007Z,58.93
2016-04-13T09:05:32.041Z,58.26
2016-04-13T09:06:32.075Z,57.53
2016-04-13T09:07:32.125Z,56.18
2016-04-13T09:08:32.159Z,56.76
2016-04-13T09:09:32.192Z,56.67
2016-04-13T09:10:32.242Z,56.38
2016-04-13T09:11:32.292Z,55.83
2016-04-13T09:12:32.325Z,58.19
2016-04-13T09:13:32.359Z,59.02
2016-04-13T09:14:32.394Z,58.26
2016-04-13T09:15:32.444Z,58.1
2016-04-13T09:16:32.477Z,58.16
2016-04-13T09:17:32.511Z,58.16
2016-04-13T09:18:32.544Z,57.02
2016-04-13T09:19:32.610Z,56.67
2016-04-13T09:20:32.628Z,56.57
2016-04-13T09:21:32.663Z,55.71
2016-04-13T09:22:32.713Z,55.35
2016-04-13T09:23:32.746Z,55.07
2016-04-13T09:24:32.780Z,54.68
2016-04-13T09:25:32.813Z,54.88
2016-04-13T09:26:32.879Z,54.11
2016-04-13T09:27:32.897Z,54.02
2016-04-13T09:28:32.947Z,54.49
2016-04-13T09:29:32.982Z,55.35
2016-04-13T09:30:33.030Z,56.18
2016-04-13T09:31:33.065Z,55.64
2016-04-13T09:32:33.098Z,55.07
2016-04-13T09:33:33.148Z,55.74
2016-04-13T09:34:33.181Z,55.35
2016-04-13T09:35:33.215Z,55.93
2016-04-13T09:36:33.250Z,55.35
2016-04-13T09:37:33.330Z,55
2016-04-13T09:38:33.334Z,54.43
2016-04-13T09:39:33.367Z,53.75
2016-04-13T09:40:33.401Z,54.43
2016-04-13T09:41:33.450Z,54.49
2016-04-13T09:42:33.484Z,55.93
2016-04-13T09:43:33.534Z,55.35
2016-04-13T09:44:33.567Z,55.45
2016-04-13T09:45:33.617Z,55.64
2016-04-13T09:46:33.652Z,55.54
2016-04-13T09:47:33.685Z,56.02
2016-04-13T09:48:33.719Z,56.69
2016-04-13T09:49:33.769Z,57.07
2016-04-13T09:50:33.803Z,56.88
2016-04-13T09:51:33.837Z,55.64
2016-04-13T09:52:33.918Z,55.35
2016-04-13T09:53:33.921Z,55.16
2016-04-13T09:54:33.994Z,55.54
2016-04-13T09:55:34.139Z,55.64
2016-04-13T09:56:34.048Z,54.68
2016-04-13T09:57:34.441Z,54.49
2016-04-13T09:58:34.194Z,54.59
2016-04-13T09:59:34.150Z,54.9
2016-04-13T10:00:34.193Z,55.26
2016-04-13T10:01:34.255Z,55.35
2016-04-13T10:02:34.274Z,55.54
2016-04-13T10:03:34.308Z,54.78
2016-04-13T10:04:34.349Z,54.33
2016-04-13T10:05:34.398Z,54.33
2016-04-13T10:06:34.448Z,55
2016-04-13T10:07:34.622Z,55.64
2016-04-13T10:08:34.515Z,56.4
2016-04-13T10:09:34.549Z,57.26
2016-04-13T10:10:34.583Z,58.1
2016-04-13T10:11:34.617Z,57.43
2016-04-13T10:12:34.886Z,57.71
2016-04-13T10:13:38.938Z,56.6
2016-04-13T10:14:45.362Z,56.31
2016-04-13T10:15:35.972Z,55.26
2016-04-13T10:16:36.224Z,55.26
2016-04-13T10:17:34.868Z,55.45
2016-04-13T10:18:34.902Z,55.64
2016-04-13T10:19:34.952Z,55.54
2016-04-13T10:20:34.970Z,55.74
2016-04-13T10:21:35.019Z,57.14
2016-04-13T10:22:35.069Z,57.43
2016-04-13T10:23:35.103Z,56.5
2016-04-13T10:24:35.136Z,56.4
2016-04-13T10:25:35.171Z,55.16
2016-04-13T10:26:35.221Z,55.54
2016-04-13T10:27:35.269Z,54.88
2016-04-13T10:28:35.288Z,54.52
2016-04-13T10:29:35.338Z,54.8
2016-04-13T10:30:35.379Z,54.9
2016-04-13T10:31:35.412Z,54.52
2016-04-13T10:32:35.447Z,54.23
2016-04-13T10:33:35.559Z,54.52
2016-04-13T10:34:35.530Z,54.43
2016-04-13T10:35:35.564Z,53.75
2016-04-13T10:36:35.614Z,53.47
2016-04-13T10:37:35.741Z,54.43
2016-04-13T10:38:35.679Z,54.04
2016-04-13T10:39:35.729Z,53.47
2016-04-13T10:40:35.763Z,54.04
2016-04-13T10:41:35.797Z,53.47
2016-04-13T10:42:35.847Z,53.75
2016-04-13T10:43:35.896Z,53.75
2016-04-13T10:44:35.915Z,54.33
2016-04-13T10:45:35.964Z,54.43
2016-04-13T10:46:35.997Z,54.23
2016-04-13T10:47:36.031Z,54.04
2016-04-13T10:48:36.097Z,54.52
2016-04-13T10:49:36.131Z,54.43
2016-04-13T10:50:36.164Z,55.26
2016-04-13T10:51:36.199Z,56.28
2016-04-13T10:52:36.326Z,56.6
2016-04-13T10:53:36.282Z,55.35
2016-04-13T10:54:36.316Z,54.39
2016-04-13T10:55:44.038Z,54.49
2016-04-13T10:57:00.480Z,53.94
2016-04-13T10:58:23.218Z,53.18
2016-04-13T10:59:20.799Z,53.85
2016-04-13T11:00:32.191Z,53.18
2016-04-13T11:01:26.391Z,53.94
2016-04-13T11:02:28.252Z,54.21
2016-04-13T11:03:30.268Z,54.59
2016-04-13T11:05:52.750Z,54.59
2016-04-13T11:06:53.431Z,54.21
2016-04-13T11:09:28.002Z,55.54
2016-04-13T11:10:42.630Z,55.45
2016-04-13T11:11:42.515Z,55.54
2016-04-13T11:12:36.180Z,55.45
2016-04-13T11:13:47.953Z,55.35
2016-04-13T11:14:34.460Z,55.52
2016-04-13T11:15:44.079Z,56.95
2016-04-13T11:16:50.506Z,56.47
2016-04-13T11:17:55.386Z,55.83
2016-04-13T11:19:10.624Z,54.49
2016-04-13T11:19:57.738Z,54.21
2016-04-13T11:20:53.650Z,53.85
2016-04-13T11:21:59.606Z,53.18
2016-04-13T11:22:58.124Z,53.28
2016-04-13T11:23:58.128Z,52.8
2016-04-13T11:24:58.179Z,52.51
2016-04-13T11:25:58.213Z,51.93
2016-04-13T11:26:58.248Z,51.75
2016-04-13T11:27:58.298Z,52.13
2016-04-13T11:28:58.332Z,52.32
2016-04-13T11:29:58.367Z,53.28
2016-04-13T11:30:58.417Z,53.18
2016-04-13T11:31:58.450Z,53.66
2016-04-13T11:32:58.483Z,53.85
2016-04-13T11:33:58.519Z,53.94
2016-04-13T11:34:58.568Z,54.23
2016-04-13T11:35:58.617Z,54.21
2016-04-13T11:36:58.652Z,54.43
2016-04-13T11:38:12.857Z,54.49
2016-04-13T11:38:58.735Z,54.39
2016-04-13T11:39:58.768Z,55.07
2016-04-13T11:40:58.802Z,54.3
2016-04-13T11:41:58.837Z,53.73
2016-04-13T11:42:58.885Z,53.28
2016-04-13T11:43:58.920Z,52.61
2016-04-13T11:44:58.954Z,52.89
2016-04-13T11:45:59.003Z,52.22
2016-04-13T11:46:59.038Z,53.28
2016-04-13T11:47:59.087Z,54.49
2016-04-13T11:48:59.121Z,55.8
2016-04-13T11:49:59.155Z,55.07
2016-04-13T11:50:59.204Z,53.44
2016-04-13T11:51:59.238Z,53.18
2016-04-13T11:52:59.428Z,52.51
2016-04-13T11:53:59.322Z,52.13
2016-04-13T11:54:59.356Z,52.03
2016-04-13T11:55:59.390Z,51.93
2016-04-13T11:56:59.439Z,52.42
2016-04-13T11:57:59.473Z,52.22
2016-04-13T11:58:59.507Z,52.13
2016-04-13T11:59:59.556Z,51.39
2016-04-13T12:00:59.591Z,51.68
2016-04-13T12:01:59.641Z,51.58
2016-04-13T12:02:59.674Z,51.77
2016-04-13T12:03:59.708Z,52.99
2016-04-13T12:04:59.742Z,52.87
2016-04-13T12:05:59.792Z,53.47
2016-04-13T12:06:59.825Z,52.96
2016-04-13T12:07:59.938Z,54.61
2016-04-13T12:09:00.925Z,55.07
2016-04-13T12:10:00.616Z,55.13
2016-04-13T12:11:01.244Z,55.52
2016-04-13T12:12:00.778Z,55.32
2016-04-13T12:13:01.311Z,54.88
2016-04-13T12:14:01.064Z,54.88
2016-04-13T12:15:01.380Z,54.59
2016-04-13T12:16:00.180Z,53.25
2016-04-13T12:17:00.213Z,53.28
2016-04-13T12:18:00.263Z,52.13
2016-04-13T12:19:00.296Z,51.84
2016-04-13T12:20:00.330Z,51.46
2016-04-13T12:21:00.380Z,51.65
2016-04-13T12:22:00.429Z,51.2
2016-04-13T12:23:00.463Z,51.58
2016-04-13T12:24:00.482Z,50.52
2016-04-13T12:25:00.546Z,50.62
2016-04-13T12:26:00.581Z,50.62
2016-04-13T12:27:00.599Z,50.34
2016-04-13T12:28:00.649Z,51.84
2016-04-13T12:29:00.698Z,51.17
2016-04-13T12:30:00.732Z,51.17
2016-04-13T12:31:00.766Z,51.93
2016-04-13T12:32:00.800Z,53.06
2016-04-13T12:33:01.929Z,53.06
2016-04-13T12:34:01.899Z,53.47
2016-04-13T12:35:02.012Z,53.25
2016-04-13T12:36:01.983Z,52.99
2016-04-13T12:37:02.031Z,52.42
2016-04-13T12:38:02.114Z,53.25
2016-04-13T12:39:01.084Z,53.25
2016-04-13T12:40:01.119Z,52.61
2016-04-13T12:41:01.168Z,51.27
2016-04-13T12:42:01.203Z,50.72
2016-04-13T12:43:01.236Z,51.39
2016-04-13T12:44:01.286Z,52.42
2016-04-13T12:45:01.319Z,52.22
2016-04-13T12:46:01.369Z,52.01
2016-04-13T12:47:01.403Z,51.36
2016-04-13T12:48:01.436Z,51.34
2016-04-13T12:49:01.471Z,52.39
2016-04-13T12:50:01.521Z,51.84
2016-04-13T12:51:01.555Z,50.7
2016-04-13T12:52:01.605Z,50.21
2016-04-13T12:53:01.716Z,50.89
2016-04-13T12:54:01.671Z,49.95
2016-04-13T12:55:01.705Z,49.86
2016-04-13T12:56:01.755Z,49.38
2016-04-13T12:57:01.790Z,49.09
2016-04-13T12:58:01.824Z,49.76
2016-04-13T12:59:01.873Z,49.66
2016-04-13T13:00:01.907Z,47.66